Time;durP1;ratioP1;P1;durP2;ratioP2;P2;SDS_P1;SDS_P2;PMS_P1;PMS_P2;Temp;Humidity;BMP_temperature;BMP_pressure;BME280_temperature;BME280_humidity;BME280_pressure;Samples;Min_cycle;Max_cycle;Signal;HPM_P1;HPM_P2
2023/05/28 00:00:10;;;;;;;0.47;0.47;;;12.20;99.90;;;;;;4993206;28;20239;-73
2023/05/28 00:02:42;;;;;;;0.93;0.50;;;12.30;99.90;;;;;;4989354;28;20262;-73
2023/05/28 00:05:13;;;;;;;0.98;0.60;;;12.40;99.90;;;;;;4993482;28;20679;-73
2023/05/28 00:07:44;;;;;;;1.23;0.60;;;12.50;99.90;;;;;;4994643;28;20567;-72
2023/05/28 00:10:17;;;;;;;0.73;0.60;;;12.50;99.90;;;;;;4993668;28;20204;-74
2023/05/28 00:12:49;;;;;;;0.70;0.60;;;12.60;99.90;;;;;;4994556;28;20214;-73
2023/05/28 00:15:20;;;;;;;0.50;0.50;;;12.80;99.90;;;;;;4995343;28;20195;-73
2023/05/28 00:17:52;;;;;;;2.70;0.70;;;12.90;99.90;;;;;;4994822;28;20223;-73
2023/05/28 00:20:25;;;;;;;0.82;0.60;;;13.00;99.90;;;;;;4995183;28;20204;-73
2023/05/28 00:22:56;;;;;;;1.30;0.80;;;13.10;99.90;;;;;;4994688;28;20246;-73
2023/05/28 00:25:29;;;;;;;1.70;0.68;;;13.20;99.90;;;;;;4993188;28;20206;-74
2023/05/28 00:28:00;;;;;;;0.63;0.60;;;13.30;99.90;;;;;;4982168;28;20681;-73
2023/05/28 00:30:31;;;;;;;0.85;0.60;;;13.50;99.90;;;;;;4995021;28;20678;-73
2023/05/28 00:33:02;;;;;;;0.85;0.70;;;13.60;99.90;;;;;;4994249;28;20205;-74
2023/05/28 00:35:33;;;;;;;0.93;0.57;;;13.70;99.90;;;;;;4993881;28;20718;-74
2023/05/28 00:38:04;;;;;;;0.90;0.60;;;13.70;99.90;;;;;;4993262;28;20222;-74
2023/05/28 00:40:37;;;;;;;1.50;0.60;;;13.70;99.90;;;;;;4994196;28;20199;-73
2023/05/28 00:43:09;;;;;;;0.55;0.55;;;13.80;99.90;;;;;;4993715;28;20562;-73
2023/05/28 00:45:40;;;;;;;0.65;0.63;;;13.90;99.90;;;;;;4994579;28;20202;-73
2023/05/28 00:48:11;;;;;;;1.70;0.60;;;14.00;99.90;;;;;;4993317;28;20203;-73
2023/05/28 00:50:44;;;;;;;2.42;0.70;;;14.10;99.90;;;;;;4994646;28;20573;-72
2023/05/28 00:53:17;;;;;;;1.70;0.70;;;14.20;99.90;;;;;;4994421;28;20547;-74
2023/05/28 00:55:50;;;;;;;0.93;0.73;;;14.30;99.90;;;;;;4992766;28;20203;-74
2023/05/28 00:58:21;;;;;;;2.97;0.80;;;14.30;99.90;;;;;;4993876;28;20223;-74
2023/05/28 01:00:53;;;;;;;0.63;0.60;;;14.30;99.90;;;;;;4992051;28;20641;-74
2023/05/28 01:03:24;;;;;;;0.93;0.50;;;14.30;99.90;;;;;;4994362;28;20209;-74
2023/05/28 01:05:55;;;;;;;0.75;0.60;;;14.30;99.90;;;;;;4993987;28;20200;-72
2023/05/28 01:08:26;;;;;;;1.10;0.68;;;14.40;99.90;;;;;;4991815;28;20571;-74
2023/05/28 01:11:00;;;;;;;1.45;0.60;;;14.60;99.90;;;;;;4992647;28;20199;-73
2023/05/28 01:13:31;;;;;;;0.95;0.57;;;14.70;99.90;;;;;;4994408;28;20199;-73
2023/05/28 01:16:06;;;;;;;1.00;0.50;;;14.70;99.90;;;;;;4993827;28;20199;-73
2023/05/28 01:18:37;;;;;;;1.05;0.50;;;14.90;99.90;;;;;;4979708;28;20332;-73
2023/05/28 01:21:08;;;;;;;1.40;0.60;;;15.00;99.90;;;;;;4982086;28;20904;-74
2023/05/28 01:23:45;;;;;;;0.57;0.40;;;15.10;99.90;;;;;;4993061;28;20199;-73
2023/05/28 01:26:17;;;;;;;0.77;0.40;;;15.10;99.90;;;;;;4987325;28;20721;-72
2023/05/28 01:28:48;;;;;;;0.85;0.52;;;15.00;99.90;;;;;;4990560;28;20199;-74
2023/05/28 01:31:20;;;;;;;0.98;0.50;;;15.10;99.90;;;;;;4989903;28;20202;-74
2023/05/28 01:33:51;;;;;;;0.80;0.50;;;15.00;99.90;;;;;;4993772;28;20195;-73
2023/05/28 01:36:25;;;;;;;2.00;0.57;;;15.00;99.90;;;;;;4992663;28;20196;-73
2023/05/28 01:39:02;;;;;;;0.80;0.57;;;15.10;99.90;;;;;;4993535;28;20230;-73
2023/05/28 01:41:35;;;;;;;1.00;0.60;;;15.10;99.90;;;;;;4994299;28;20227;-74
2023/05/28 01:44:08;;;;;;;2.00;0.70;;;15.10;99.90;;;;;;4993815;28;20207;-73
2023/05/28 01:46:39;;;;;;;1.17;0.50;;;15.20;99.90;;;;;;4994526;28;20196;-74
2023/05/28 01:49:11;;;;;;;0.80;0.70;;;15.30;99.90;;;;;;4994020;28;20195;-73
2023/05/28 01:51:42;;;;;;;1.05;0.50;;;15.20;99.90;;;;;;4994888;28;20594;-74
2023/05/28 01:54:15;;;;;;;1.55;0.50;;;15.20;99.90;;;;;;4994202;28;20540;-74
2023/05/28 01:56:46;;;;;;;0.82;0.50;;;15.20;99.90;;;;;;4994209;28;20663;-74
2023/05/28 01:59:17;;;;;;;0.40;0.40;;;15.10;99.90;;;;;;4993762;28;20227;-74
2023/05/28 02:01:48;;;;;;;0.40;0.40;;;15.20;99.90;;;;;;4993383;28;20203;-74
2023/05/28 02:04:20;;;;;;;1.13;0.70;;;15.20;99.90;;;;;;4993873;28;20214;-74
2023/05/28 02:06:51;;;;;;;0.95;0.50;;;15.20;99.90;;;;;;4994152;28;20199;-72
2023/05/28 02:09:24;;;;;;;1.17;0.30;;;15.20;99.90;;;;;;4994096;28;20192;-74
2023/05/28 02:11:55;;;;;;;0.60;0.50;;;15.20;99.90;;;;;;4994102;28;20203;-73
2023/05/28 02:14:26;;;;;;;1.48;0.40;;;15.30;99.90;;;;;;4991980;28;20203;-73
2023/05/28 02:16:57;;;;;;;0.47;0.47;;;15.40;99.90;;;;;;4992290;28;20576;-74
2023/05/28 02:19:28;;;;;;;1.33;0.50;;;15.40;99.90;;;;;;4995160;28;20206;-74
2023/05/28 02:22:03;;;;;;;0.45;0.40;;;15.50;99.90;;;;;;5000339;28;20196;-74
2023/05/28 02:24:36;;;;;;;0.52;0.50;;;15.60;99.90;;;;;;4992406;28;20246;-74
2023/05/28 02:27:09;;;;;;;0.95;0.40;;;15.60;99.90;;;;;;4989444;28;20196;-74
2023/05/28 02:29:40;;;;;;;1.00;0.50;;;15.70;99.90;;;;;;4996467;28;20203;-73
2023/05/28 02:32:11;;;;;;;1.60;0.40;;;15.80;99.90;;;;;;4997986;28;20214;-73
2023/05/28 02:34:42;;;;;;;2.05;0.47;;;15.80;99.90;;;;;;4993866;28;20210;-74
2023/05/28 02:37:13;;;;;;;0.85;0.40;;;15.70;99.90;;;;;;4988839;28;20210;-74
2023/05/28 02:39:46;;;;;;;0.65;0.40;;;15.70;99.90;;;;;;4993841;28;20205;-74
2023/05/28 02:42:17;;;;;;;0.45;0.40;;;15.70;99.90;;;;;;4997600;28;20199;-74
2023/05/28 02:44:48;;;;;;;0.40;0.40;;;15.80;99.90;;;;;;4997997;28;20195;-74
2023/05/28 02:47:19;;;;;;;1.05;0.57;;;15.80;99.90;;;;;;4997354;28;20199;-74
2023/05/28 02:49:50;;;;;;;0.68;0.45;;;15.70;99.90;;;;;;4997396;28;20674;-73
2023/05/28 02:52:22;;;;;;;1.15;0.50;;;15.70;99.90;;;;;;4995352;28;20222;-73
2023/05/28 02:54:55;;;;;;;0.90;0.30;;;15.70;99.90;;;;;;4996466;28;20202;-74
2023/05/28 02:57:26;;;;;;;0.40;0.40;;;15.70;99.90;;;;;;4997204;28;20203;-74
2023/05/28 02:59:57;;;;;;;1.67;0.50;;;15.70;99.90;;;;;;4996717;28;20274;-74
2023/05/28 03:02:28;;;;;;;0.40;0.40;;;15.70;99.90;;;;;;4995789;28;20647;-74
2023/05/28 03:05:01;;;;;;;0.82;0.40;;;15.80;99.90;;;;;;4986868;28;20203;-74
2023/05/28 03:07:32;;;;;;;0.40;0.40;;;15.90;99.90;;;;;;5001470;28;20265;-74
2023/05/28 03:10:06;;;;;;;1.83;0.40;;;16.00;99.90;;;;;;4995906;28;20210;-73
2023/05/28 03:12:37;;;;;;;0.30;0.30;;;16.10;99.90;;;;;;4997339;28;20206;-74
2023/05/28 03:15:09;;;;;;;0.73;0.40;;;16.20;99.90;;;;;;4996768;28;20596;-74
2023/05/28 03:17:40;;;;;;;1.55;0.40;;;16.30;99.90;;;;;;4996660;28;20219;-73
2023/05/28 03:20:11;;;;;;;0.40;0.30;;;16.40;99.90;;;;;;4996122;28;20202;-73
2023/05/28 03:22:42;;;;;;;0.70;0.40;;;16.40;99.90;;;;;;4996793;28;20199;-73
2023/05/28 03:25:16;;;;;;;0.35;0.35;;;16.40;99.90;;;;;;4991968;28;20231;-73
2023/05/28 03:27:47;;;;;;;1.15;0.30;;;16.40;99.90;;;;;;4996386;28;20207;-74
2023/05/28 03:30:18;;;;;;;1.63;0.30;;;16.40;99.90;;;;;;4996683;28;20203;-73
2023/05/28 03:32:50;;;;;;;0.30;0.30;;;16.40;99.90;;;;;;4995721;28;20192;-74
2023/05/28 03:35:21;;;;;;;0.50;0.50;;;16.40;99.90;;;;;;4996588;28;20250;-75
2023/05/28 03:37:52;;;;;;;0.47;0.40;;;16.30;99.90;;;;;;4996244;28;20216;-74
2023/05/28 03:40:25;;;;;;;0.95;0.50;;;16.30;99.90;;;;;;4995575;28;20572;-74
2023/05/28 03:42:57;;;;;;;0.68;0.40;;;16.30;99.90;;;;;;4991285;28;20303;-74
2023/05/28 03:45:28;;;;;;;0.85;0.73;;;16.40;99.90;;;;;;4988390;28;20196;-75
2023/05/28 03:47:59;;;;;;;0.30;0.30;;;16.40;99.90;;;;;;4994626;28;20199;-75
2023/05/28 03:50:30;;;;;;;0.35;0.30;;;16.60;99.90;;;;;;4994704;28;20199;-73
2023/05/28 03:53:01;;;;;;;0.30;0.30;;;16.70;99.90;;;;;;4996297;28;20559;-73
2023/05/28 03:55:35;;;;;;;0.38;0.30;;;16.80;99.90;;;;;;4995335;28;20726;-73
2023/05/28 03:58:07;;;;;;;0.30;0.30;;;16.70;99.90;;;;;;4995912;28;20220;-75
2023/05/28 04:00:38;;;;;;;0.30;0.30;;;16.60;99.90;;;;;;4995588;28;20270;-75
2023/05/28 04:03:09;;;;;;;0.20;0.20;;;16.60;99.90;;;;;;4996123;28;20234;-75
2023/05/28 04:05:40;;;;;;;1.17;0.30;;;16.60;99.90;;;;;;4994355;28;20202;-75
2023/05/28 04:08:11;;;;;;;0.50;0.43;;;16.60;99.90;;;;;;4993210;28;20226;-75
2023/05/28 04:10:44;;;;;;;1.08;0.30;;;16.60;99.90;;;;;;4994382;28;20196;-74
2023/05/28 04:13:15;;;;;;;0.47;0.30;;;16.80;99.90;;;;;;4995933;28;20317;-74
2023/05/28 04:15:47;;;;;;;0.20;0.20;;;16.80;99.90;;;;;;4993462;28;20204;-75
2023/05/28 04:18:18;;;;;;;0.55;0.32;;;16.90;99.90;;;;;;4995719;28;20251;-75
2023/05/28 04:20:49;;;;;;;0.22;0.20;;;17.00;99.90;;;;;;4995761;28;20282;-74
2023/05/28 04:23:20;;;;;;;0.40;0.20;;;17.00;99.90;;;;;;4993983;28;20207;-73
2023/05/28 04:25:53;;;;;;;0.20;0.20;;;17.00;99.90;;;;;;4990386;28;20249;-74
2023/05/28 04:28:27;;;;;;;0.30;0.20;;;16.90;99.90;;;;;;4990248;28;20265;-74
2023/05/28 04:31:00;;;;;;;0.30;0.30;;;17.00;99.90;;;;;;4987997;28;20196;-74
2023/05/28 04:33:31;;;;;;;0.50;0.45;;;17.00;99.90;;;;;;4990338;28;20581;-72
2023/05/28 04:36:03;;;;;;;0.57;0.40;;;17.00;99.90;;;;;;4995396;28;20203;-74
2023/05/28 04:38:34;;;;;;;0.20;0.20;;;16.90;99.90;;;;;;4995367;28;20219;-74
2023/05/28 04:41:07;;;;;;;1.10;0.30;;;17.00;99.90;;;;;;4992512;28;20895;-73
2023/05/28 04:43:39;;;;;;;0.35;0.20;;;17.00;99.90;;;;;;4994237;28;20203;-74
2023/05/28 04:46:11;;;;;;;0.50;0.28;;;17.00;99.90;;;;;;4995108;28;20204;-75
2023/05/28 04:48:42;;;;;;;0.22;0.20;;;16.90;99.90;;;;;;4995499;28;20235;-74
2023/05/28 04:51:13;;;;;;;0.65;0.20;;;16.80;99.90;;;;;;4993301;28;20230;-78
2023/05/28 04:53:45;;;;;;;0.57;0.25;;;16.70;99.90;;;;;;4994467;28;20212;-73
2023/05/28 04:56:18;;;;;;;1.08;0.30;;;16.70;99.90;;;;;;4982877;28;20282;-74
2023/05/28 04:58:49;;;;;;;0.60;0.30;;;16.50;99.90;;;;;;4993287;28;20231;-73
2023/05/28 05:01:20;;;;;;;0.60;0.30;;;16.50;99.90;;;;;;4991732;28;20243;-73
2023/05/28 05:03:51;;;;;;;0.22;0.20;;;16.50;99.90;;;;;;4994147;28;20203;-75
2023/05/28 05:06:22;;;;;;;0.30;0.30;;;16.50;99.90;;;;;;4993950;28;20207;-74
2023/05/28 05:08:53;;;;;;;0.65;0.38;;;16.50;99.90;;;;;;4991897;28;20566;-74
2023/05/28 05:11:26;;;;;;;0.82;0.40;;;16.60;99.90;;;;;;4987975;28;20198;-73
2023/05/28 05:13:58;;;;;;;0.30;0.30;;;16.80;99.90;;;;;;4994313;28;20196;-73
2023/05/28 05:16:29;;;;;;;0.40;0.40;;;16.90;99.90;;;;;;4993858;28;20659;-73
2023/05/28 05:19:01;;;;;;;0.30;0.30;;;17.00;99.90;;;;;;4982710;28;20215;-74
2023/05/28 05:21:32;;;;;;;0.43;0.30;;;17.20;99.90;;;;;;4993203;28;20206;-74
2023/05/28 05:24:03;;;;;;;2.10;0.50;;;17.20;99.90;;;;;;4993752;28;20196;-74
2023/05/28 05:26:36;;;;;;;1.05;0.50;;;17.20;99.90;;;;;;4994370;28;20274;-73
2023/05/28 05:29:07;;;;;;;0.20;0.20;;;17.20;99.90;;;;;;4994542;28;20203;-73
2023/05/28 05:31:38;;;;;;;1.30;0.30;;;17.20;99.90;;;;;;4991276;28;20594;-74
2023/05/28 05:34:09;;;;;;;0.30;0.20;;;17.20;99.90;;;;;;4991632;28;20196;-74
2023/05/28 05:36:40;;;;;;;0.30;0.30;;;17.10;99.90;;;;;;4994288;28;20583;-74
2023/05/28 05:39:11;;;;;;;0.17;0.17;;;17.10;99.90;;;;;;4993322;28;20215;-74
2023/05/28 05:41:44;;;;;;;0.98;0.30;;;16.90;99.90;;;;;;4990673;28;20196;-74
2023/05/28 05:44:15;;;;;;;0.30;0.30;;;16.80;99.90;;;;;;4994042;28;20213;-74
2023/05/28 05:46:46;;;;;;;0.95;0.20;;;16.70;99.90;;;;;;4994274;28;20203;-74
2023/05/28 05:49:18;;;;;;;0.25;0.20;;;16.60;99.90;;;;;;4992932;28;20200;-74
2023/05/28 05:51:49;;;;;;;0.77;0.40;;;16.50;99.90;;;;;;4989450;28;20199;-74
2023/05/28 05:54:20;;;;;;;0.30;0.30;;;16.40;99.90;;;;;;4993036;28;20204;-75
2023/05/28 05:56:53;;;;;;;0.52;0.38;;;16.30;99.90;;;;;;4993732;28;20547;-74
2023/05/28 05:59:24;;;;;;;0.35;0.30;;;16.30;99.90;;;;;;4988238;28;20247;-73
2023/05/28 06:01:55;;;;;;;1.00;0.40;;;16.20;99.90;;;;;;4993050;28;20686;-74
2023/05/28 06:04:33;;;;;;;0.40;0.40;;;16.20;99.90;;;;;;4989792;28;20674;-74
2023/05/28 06:07:06;;;;;;;0.50;0.50;;;16.10;99.90;;;;;;4989176;28;20199;-74
2023/05/28 06:09:37;;;;;;;0.32;0.32;;;16.10;99.90;;;;;;4992254;28;20286;-74
2023/05/28 06:12:10;;;;;;;0.70;0.50;;;16.00;99.90;;;;;;4990521;28;20199;-74
2023/05/28 06:14:42;;;;;;;0.50;0.40;;;16.00;99.90;;;;;;4987997;28;20192;-74
2023/05/28 06:17:13;;;;;;;0.40;0.40;;;15.90;99.90;;;;;;4993102;28;20198;-75
2023/05/28 06:19:44;;;;;;;0.90;0.50;;;15.90;99.90;;;;;;4992976;28;20219;-75
2023/05/28 06:22:15;;;;;;;1.45;0.40;;;15.90;99.90;;;;;;4991587;28;20216;-75
2023/05/28 06:24:48;;;;;;;1.35;0.60;;;15.90;99.90;;;;;;4991199;28;20214;-74
2023/05/28 06:27:21;;;;;;;1.35;0.47;;;15.80;99.90;;;;;;4998704;28;20199;-74
2023/05/28 06:29:53;;;;;;;0.50;0.50;;;15.80;99.90;;;;;;4992836;28;20210;-74
2023/05/28 06:32:24;;;;;;;0.40;0.40;;;15.80;99.90;;;;;;4991446;28;20210;-74
2023/05/28 06:34:55;;;;;;;0.90;0.50;;;15.80;99.90;;;;;;4992623;28;20201;-74
2023/05/28 06:37:26;;;;;;;0.93;0.57;;;15.80;99.90;;;;;;4990521;28;20207;-74
2023/05/28 06:39:57;;;;;;;1.20;0.60;;;15.80;99.90;;;;;;4991870;28;20270;-74
2023/05/28 06:42:30;;;;;;;0.50;0.50;;;15.80;99.90;;;;;;4992454;28;20195;-74
2023/05/28 06:45:01;;;;;;;0.80;0.60;;;15.80;99.90;;;;;;4992814;28;20561;-74
2023/05/28 06:47:32;;;;;;;0.60;0.60;;;15.70;99.90;;;;;;4992585;28;20204;-74
2023/05/28 06:50:03;;;;;;;3.03;0.80;;;15.60;99.90;;;;;;4992570;28;20567;-74
2023/05/28 06:52:34;;;;;;;1.63;0.70;;;15.60;99.90;;;;;;4992565;28;20199;-74
2023/05/28 06:55:06;;;;;;;0.93;0.55;;;15.50;99.90;;;;;;4992443;28;20674;-74
2023/05/28 06:57:39;;;;;;;0.63;0.63;;;15.50;99.90;;;;;;4991093;28;20200;-74
2023/05/28 07:00:15;;;;;;;1.08;0.73;;;15.60;99.90;;;;;;4985756;28;20239;-75
2023/05/28 07:02:46;;;;;;;1.17;0.70;;;15.60;99.90;;;;;;4984407;28;20191;-74
2023/05/28 07:05:18;;;;;;;1.35;0.88;;;15.50;99.90;;;;;;4992882;28;20203;-75
2023/05/28 07:07:49;;;;;;;1.42;0.80;;;15.50;99.90;;;;;;4991531;28;20250;-74
2023/05/28 07:10:20;;;;;;;0.93;0.73;;;15.50;99.90;;;;;;4990906;28;20219;-74
2023/05/28 07:12:53;;;;;;;1.67;1.10;;;15.50;99.90;;;;;;4992590;28;20570;-74
2023/05/28 07:15:24;;;;;;;1.08;0.80;;;15.40;99.90;;;;;;4993291;28;20199;-74
2023/05/28 07:17:55;;;;;;;1.45;0.88;;;15.40;99.90;;;;;;4993097;28;20204;-74
2023/05/28 07:20:26;;;;;;;3.33;0.90;;;15.40;99.90;;;;;;4991345;28;20223;-74
2023/05/28 07:22:58;;;;;;;0.80;0.70;;;15.40;99.90;;;;;;4994912;28;20199;-74
2023/05/28 07:25:29;;;;;;;0.93;0.75;;;15.30;99.90;;;;;;4995301;28;20541;-74
2023/05/28 07:28:02;;;;;;;3.75;1.00;;;15.30;99.90;;;;;;4994717;28;20206;-74
2023/05/28 07:30:33;;;;;;;2.17;1.35;;;15.30;99.90;;;;;;4994718;28;20212;-74
2023/05/28 07:33:04;;;;;;;1.50;0.90;;;15.20;99.90;;;;;;4995918;28;20195;-74
2023/05/28 07:35:35;;;;;;;3.78;1.00;;;15.20;99.90;;;;;;4994778;28;20204;-74
2023/05/28 07:38:07;;;;;;;1.83;1.15;;;15.20;99.90;;;;;;4989991;28;20207;-74
2023/05/28 07:40:38;;;;;;;2.05;1.02;;;15.10;99.90;;;;;;4993729;28;20215;-74
2023/05/28 07:43:11;;;;;;;3.15;1.20;;;15.10;99.90;;;;;;4994880;28;20206;-74
2023/05/28 07:45:42;;;;;;;1.67;1.10;;;15.00;99.90;;;;;;4996744;28;20197;-74
2023/05/28 07:48:13;;;;;;;2.78;1.10;;;15.00;99.90;;;;;;4993740;28;20208;-74
2023/05/28 07:50:44;;;;;;;1.58;0.90;;;14.90;99.90;;;;;;4994232;28;20660;-74
2023/05/28 07:53:16;;;;;;;1.45;0.98;;;14.90;99.90;;;;;;5002189;28;20192;-74
2023/05/28 07:55:47;;;;;;;1.55;0.80;;;14.80;99.90;;;;;;5002001;28;20214;-74
2023/05/28 07:58:20;;;;;;;2.40;1.08;;;14.80;99.90;;;;;;4993486;28;20206;-74
2023/05/28 08:00:52;;;;;;;1.30;1.00;;;14.70;99.90;;;;;;4994284;28;20235;-74
2023/05/28 08:03:23;;;;;;;1.55;0.98;;;14.60;99.90;;;;;;4988311;28;20566;-74
2023/05/28 08:05:54;;;;;;;1.92;1.00;;;14.60;99.90;;;;;;4992769;28;20191;-74
2023/05/28 08:08:26;;;;;;;1.67;1.10;;;14.50;99.90;;;;;;4994903;28;20203;-74
2023/05/28 08:10:57;;;;;;;1.42;1.00;;;14.50;99.90;;;;;;4992167;28;20566;-75
2023/05/28 08:13:30;;;;;;;4.45;1.35;;;14.50;99.90;;;;;;4993340;28;20203;-74
2023/05/28 08:16:02;;;;;;;3.55;1.60;;;14.40;99.90;;;;;;4995139;28;20288;-74
2023/05/28 08:18:35;;;;;;;2.45;1.60;;;14.40;99.90;;;;;;4991852;28;20199;-74
2023/05/28 08:21:06;;;;;;;4.18;1.88;;;14.30;99.90;;;;;;4995504;28;20242;-74
2023/05/28 08:23:37;;;;;;;3.28;1.92;;;14.30;99.90;;;;;;4995694;28;20280;-74
2023/05/28 08:26:09;;;;;;;3.40;1.60;;;14.20;99.90;;;;;;4990594;28;20218;-74
2023/05/28 08:28:42;;;;;;;3.95;1.88;;;14.20;99.90;;;;;;4987469;28;20554;-74
2023/05/28 08:31:13;;;;;;;4.55;2.10;;;14.20;99.90;;;;;;4991885;28;20203;-74
2023/05/28 08:33:44;;;;;;;3.17;2.17;;;14.20;99.90;;;;;;4994753;28;20199;-74
2023/05/28 08:36:15;;;;;;;3.83;2.10;;;14.20;99.90;;;;;;4993666;28;20659;-74
2023/05/28 08:38:46;;;;;;;3.70;2.10;;;14.20;99.90;;;;;;4992200;28;20196;-74
2023/05/28 08:41:17;;;;;;;3.42;2.50;;;14.20;99.90;;;;;;4993765;28;20231;-74
2023/05/28 08:43:50;;;;;;;3.03;2.20;;;14.20;99.90;;;;;;4994743;28;20210;-74
2023/05/28 08:46:22;;;;;;;3.10;2.00;;;14.10;99.90;;;;;;4975993;28;20196;-73
2023/05/28 08:48:54;;;;;;;3.15;2.33;;;14.10;99.90;;;;;;4992331;28;20199;-74
2023/05/28 08:51:29;;;;;;;3.65;2.42;;;14.10;99.90;;;;;;4992424;28;20199;-74
2023/05/28 08:54:01;;;;;;;5.70;2.78;;;14.00;99.90;;;;;;4993440;28;20553;-74
2023/05/28 08:56:33;;;;;;;3.95;2.85;;;13.90;99.90;;;;;;4993517;28;20557;-74
2023/05/28 08:59:06;;;;;;;5.68;3.30;;;13.70;99.90;;;;;;4991997;28;20220;-74
2023/05/28 09:01:37;;;;;;;4.28;2.90;;;13.60;99.90;;;;;;4992535;28;20195;-73
2023/05/28 09:04:08;;;;;;;4.40;2.70;;;13.50;99.90;;;;;;4994211;28;20568;-74
2023/05/28 09:06:41;;;;;;;4.07;2.70;;;13.50;99.90;;;;;;4993951;28;20200;-74
2023/05/28 09:09:13;;;;;;;5.70;3.22;;;13.40;99.90;;;;;;4992310;28;20202;-74
2023/05/28 09:11:44;;;;;;;6.43;2.88;;;13.30;99.90;;;;;;4993910;28;20203;-73
2023/05/28 09:14:18;;;;;;;5.43;2.80;;;13.20;99.90;;;;;;4992602;28;20202;-73
2023/05/28 09:16:50;;;;;;;4.32;2.85;;;13.20;99.90;;;;;;4994128;28;20195;-74
2023/05/28 09:19:21;;;;;;;4.07;2.70;;;13.10;99.90;;;;;;4992409;28;20227;-74
2023/05/28 09:22:01;;;;;;;4.15;2.72;;;13.10;99.90;;;;;;4992088;28;20195;-74
2023/05/28 09:24:33;;;;;;;4.05;2.50;;;13.10;99.90;;;;;;4992872;28;20647;-74
2023/05/28 09:27:04;;;;;;;4.60;3.10;;;13.00;99.90;;;;;;4993719;28;20663;-73
2023/05/28 09:29:37;;;;;;;4.22;3.13;;;13.00;99.90;;;;;;4992323;28;20195;-74
2023/05/28 09:32:09;;;;;;;5.30;3.20;;;12.90;99.90;;;;;;4991903;28;20203;-74
2023/05/28 09:34:45;;;;;;;5.93;3.58;;;12.90;99.90;;;;;;4975290;28;20228;-74
2023/05/28 09:37:19;;;;;;;8.00;3.90;;;12.80;99.90;;;;;;4992301;28;20200;-74
2023/05/28 09:40:03;;;;;;;7.10;4.15;;;12.80;99.90;;;;;;4989671;28;20265;-73
2023/05/28 09:42:41;;;;;;;6.85;4.30;;;12.70;99.90;;;;;;4993200;28;20261;-74
2023/05/28 09:45:23;;;;;;;6.85;4.13;;;12.70;99.90;;;;;;4993477;28;20196;-74
2023/05/28 09:47:55;;;;;;;7.50;4.13;;;12.60;99.90;;;;;;4992936;28;20196;-74
2023/05/28 09:50:26;;;;;;;6.78;4.07;;;12.60;99.90;;;;;;4992609;28;20197;-74
2023/05/28 09:52:59;;;;;;;6.88;4.43;;;12.60;99.90;;;;;;4990464;28;20206;-73
2023/05/28 09:55:30;;;;;;;6.30;3.90;;;12.60;99.90;;;;;;4991771;28;20200;-74
2023/05/28 09:58:05;;;;;;;6.28;4.10;;;12.50;99.90;;;;;;4981609;28;20667;-73
2023/05/28 10:00:44;;;;;;;5.55;3.67;;;12.50;99.90;;;;;;4992312;28;20247;-74
2023/05/28 10:03:23;;;;;;;6.32;3.97;;;12.50;99.90;;;;;;4991702;28;20191;-74
2023/05/28 10:05:59;;;;;;;7.70;4.25;;;12.50;99.90;;;;;;4979730;28;20195;-73
2023/05/28 10:08:31;;;;;;;6.80;3.67;;;12.40;99.90;;;;;;4984795;28;20282;-73
2023/05/28 10:11:02;;;;;;;6.35;3.63;;;12.30;99.90;;;;;;4989418;28;20671;-74
2023/05/28 10:13:34;;;;;;;7.10;3.90;;;12.30;99.90;;;;;;4993813;28;20203;-74
2023/05/28 10:16:08;;;;;;;7.03;4.05;;;12.30;99.90;;;;;;4991353;28;20199;-74
2023/05/28 10:18:39;;;;;;;8.00;3.92;;;12.20;99.90;;;;;;4992693;28;20199;-74
2023/05/28 10:21:12;;;;;;;6.18;3.63;;;12.20;99.90;;;;;;4990953;28;20211;-74
2023/05/28 10:23:45;;;;;;;6.78;4.10;;;12.20;99.90;;;;;;4993878;28;20254;-75
2023/05/28 10:26:18;;;;;;;8.40;4.60;;;12.20;99.90;;;;;;4993172;28;20547;-74
2023/05/28 10:28:55;;;;;;;7.70;4.50;;;12.20;99.90;;;;;;4993736;28;20257;-74
2023/05/28 10:31:28;;;;;;;8.45;4.85;;;12.10;99.90;;;;;;4991682;28;20211;-74
2023/05/28 10:34:00;;;;;;;7.53;4.72;;;12.00;99.90;;;;;;4992321;28;20195;-74
2023/05/28 10:36:32;;;;;;;7.82;4.60;;;12.00;99.90;;;;;;4989236;28;20206;-74
2023/05/28 10:39:06;;;;;;;8.45;4.70;;;12.00;99.90;;;;;;4993081;28;20206;-74
2023/05/28 10:41:37;;;;;;;8.68;4.22;;;12.00;99.90;;;;;;4993765;28;20687;-74
2023/05/28 10:44:11;;;;;;;7.93;4.75;;;12.00;99.90;;;;;;4993955;28;20200;-75
2023/05/28 10:46:45;;;;;;;7.72;4.25;;;11.90;99.90;;;;;;4992052;28;20203;-74
2023/05/28 10:49:20;;;;;;;9.00;4.70;;;11.90;99.90;;;;;;4991098;28;20199;-74
2023/05/28 10:52:00;;;;;;;10.45;4.85;;;11.90;99.90;;;;;;4997123;28;20569;-74
2023/05/28 10:54:46;;;;;;;6.47;4.47;;;11.90;99.90;;;;;;4995815;28;20286;-74
2023/05/28 10:57:18;;;;;;;7.43;4.93;;;11.90;99.90;;;;;;4994316;28;20206;-74
2023/05/28 10:59:51;;;;;;;7.25;4.95;;;12.00;99.90;;;;;;4996261;28;20261;-74
2023/05/28 11:02:26;;;;;;;7.97;4.45;;;12.00;99.90;;;;;;4993006;28;20196;-74
2023/05/28 11:04:59;;;;;;;7.53;4.43;;;12.00;99.90;;;;;;4984310;28;20206;-74
2023/05/28 11:07:35;;;;;;;7.00;4.22;;;12.00;99.90;;;;;;4994410;28;20207;-74
2023/05/28 11:10:07;;;;;;;6.25;3.78;;;12.00;99.90;;;;;;4986692;28;20211;-74
2023/05/28 11:12:40;;;;;;;5.90;3.67;;;12.00;99.90;;;;;;4995629;28;20215;-75
2023/05/28 11:15:12;;;;;;;4.93;3.60;;;12.10;99.90;;;;;;4995148;28;20199;-74
2023/05/28 11:17:47;;;;;;;5.35;3.58;;;12.10;99.90;;;;;;4996044;28;20274;-74
2023/05/28 11:20:24;;;;;;;3.92;3.03;;;12.10;99.90;;;;;;4994869;28;20311;-74
2023/05/28 11:22:56;;;;;;;4.43;2.90;;;12.10;99.90;;;;;;4994850;28;20686;-74
2023/05/28 11:25:27;;;;;;;4.60;3.10;;;12.10;99.90;;;;;;4994460;28;20195;-74
2023/05/28 11:28:03;;;;;;;5.18;3.10;;;12.20;99.90;;;;;;4991969;28;20196;-74
2023/05/28 11:30:34;;;;;;;6.30;3.40;;;12.20;99.90;;;;;;4992519;28;20199;-74
2023/05/28 11:33:08;;;;;;;4.78;2.95;;;12.20;99.90;;;;;;4996102;28;20246;-74
2023/05/28 11:35:39;;;;;;;5.65;3.05;;;12.10;99.90;;;;;;4996173;28;20215;-74
2023/05/28 11:38:10;;;;;;;5.30;3.35;;;12.10;99.90;;;;;;4993424;28;20586;-74
2023/05/28 11:40:41;;;;;;;5.32;3.13;;;12.10;99.90;;;;;;4993124;28;20219;-75
2023/05/28 11:43:12;;;;;;;4.35;3.00;;;12.10;99.90;;;;;;4992563;28;20200;-74
2023/05/28 11:45:43;;;;;;;6.97;3.25;;;12.00;99.90;;;;;;4994775;28;20574;-74
2023/05/28 11:48:19;;;;;;;4.05;3.10;;;11.90;99.90;;;;;;4995744;28;20217;-74
2023/05/28 11:50:51;;;;;;;4.50;3.33;;;11.80;99.90;;;;;;4993161;28;20662;-75
2023/05/28 11:53:22;;;;;;;4.30;3.30;;;11.60;99.90;;;;;;4994400;28;20203;-75
2023/05/28 11:55:53;;;;;;;4.78;3.50;;;11.60;99.90;;;;;;4995856;28;20195;-75
2023/05/28 11:58:33;;;;;;;6.07;3.50;;;11.50;99.90;;;;;;4995295;28;20814;-74
2023/05/28 12:01:04;;;;;;;5.43;3.80;;;11.40;99.90;;;;;;4993036;28;20334;-75
2023/05/28 12:03:38;;;;;;;4.80;3.03;;;11.30;99.90;;;;;;4995154;28;20217;-74
2023/05/28 12:06:09;;;;;;;4.43;3.30;;;11.20;99.90;;;;;;4996672;28;20564;-73
2023/05/28 12:08:42;;;;;;;5.85;3.22;;;11.20;99.90;;;;;;4993655;28;20200;-74
2023/05/28 12:11:13;;;;;;;4.95;3.72;;;11.20;99.90;;;;;;4994396;28;20570;-74
2023/05/28 12:13:46;;;;;;;6.68;3.97;;;11.10;99.90;;;;;;4993472;28;20191;-74
2023/05/28 12:16:17;;;;;;;4.18;3.50;;;11.10;99.90;;;;;;4995654;28;20243;-74
2023/05/28 12:18:50;;;;;;;5.05;4.03;;;11.10;99.90;;;;;;4994112;28;20208;-74
2023/05/28 12:21:22;;;;;;;5.18;3.28;;;11.10;99.90;;;;;;4986918;28;20223;-74
2023/05/28 12:23:54;;;;;;;4.93;3.50;;;11.10;99.90;;;;;;4994949;28;20211;-74
2023/05/28 12:26:25;;;;;;;5.43;4.00;;;11.10;99.90;;;;;;4994748;28;20199;-75
2023/05/28 12:28:56;;;;;;;5.03;3.75;;;11.10;99.90;;;;;;4982882;28;20569;-74
2023/05/28 12:31:32;;;;;;;4.75;3.50;;;11.00;99.90;;;;;;4994749;28;20196;-74
2023/05/28 12:34:05;;;;;;;4.07;3.10;;;11.00;99.90;;;;;;4995040;28;20193;-74
2023/05/28 12:36:36;;;;;;;5.40;3.63;;;11.00;99.90;;;;;;4989454;28;20219;-74
2023/05/28 12:39:07;;;;;;;4.13;3.25;;;11.00;99.90;;;;;;4990436;28;20199;-74
2023/05/28 12:41:38;;;;;;;5.50;3.47;;;11.00;99.90;;;;;;4991111;28;20710;-74
2023/05/28 12:44:09;;;;;;;4.93;3.42;;;11.00;99.90;;;;;;4992302;28;20206;-74
2023/05/28 12:46:41;;;;;;;4.55;3.30;;;11.00;99.90;;;;;;4994734;28;20562;-74
2023/05/28 12:49:14;;;;;;;6.13;3.67;;;11.00;99.90;;;;;;4994082;28;20202;-74
2023/05/28 12:51:45;;;;;;;4.50;3.03;;;11.00;99.90;;;;;;4992766;28;20203;-74
2023/05/28 12:54:16;;;;;;;4.50;3.42;;;11.00;99.90;;;;;;4993113;28;20199;-74
2023/05/28 12:56:47;;;;;;;5.07;3.25;;;11.00;99.90;;;;;;4993960;28;20207;-74
2023/05/28 12:59:25;;;;;;;5.13;3.42;;;11.00;99.90;;;;;;4993384;28;20270;-74
2023/05/28 13:01:56;;;;;;;4.47;3.40;;;10.90;99.90;;;;;;4994373;28;20261;-74
2023/05/28 13:04:29;;;;;;;5.15;3.47;;;10.90;99.90;;;;;;4993336;28;20191;-74
2023/05/28 13:07:01;;;;;;;5.07;3.08;;;10.90;99.90;;;;;;4993720;28;20204;-74
2023/05/28 13:09:32;;;;;;;4.30;3.30;;;10.80;99.90;;;;;;4993974;28;20570;-74
2023/05/28 13:12:03;;;;;;;4.15;3.10;;;10.80;99.90;;;;;;4994097;28;20202;-74